Terminal Aerodrome Forecast
Issued by NWS

Home | Current Version | Previous Version | Text Only | Print | Product List | Glossary On
Versions: 1 2 3 4 5 6 7 8 9 10 11 12 13
000
FTUS42 TJSJ 281720
TAFJPS
TAF
TJPS 281720Z 2818/2918 14010KT P6SM VCSH FEW030 BKN060
     FM282200 VRB04KT P6SM VCSH FEW030 BKN060
     FM291330 14010KT P6SM VCSH FEW030 BKN080
      AMD NOT SKED TIL 290300=

USA.gov is the U.S. government's official web portal to all federal, state and local government web resources and services.